Airfield :
LOGIN :

Register | Disclaimer

   EN    FR    IT 

 










Legend :    VFR   Marginal VFR   IFR   Intensive IFR   Very Intensive IFR
Visi :
Ceiling :
>= 8 km
>= 3000ft
5 to 8 km
1000 to 3000 ft
1500m to 5 km
500 to 1000 ft
800 to 1500m
200 to 500 ft
< 800m
< 200 ft
Symbols :   Thunderstorms  Fog  Heavy snow  Heavy precipitations  Wind > 20 kt
SIGMETs :     Misc.  Thunderstorms  Icing  Turbulence  Mountain Waves  Volcanic Ashes







- Airport Elevation : 468 ft
- IATA code : GRO


LEGE - Girona Costa Brava

CURRENT METAR :
  • 220400Z 00000KT 7000 FEW020 13/13 Q1019

EXPIRED METARs :
  • 220330Z 00000KT 8000 FEW020 14/13 Q1019
  • 220300Z 00000KT 9999 FEW020 14/13 Q1019
  • 220230Z 00000KT 9999 FEW020 14/14 Q1019
  • 220200Z 00000KT 9999 FEW020 15/14 Q1019
  • 220130Z 00000KT 9999 FEW020 15/14 Q1020

TAF TAF LEGE
Valid from the 22 at 00:00 until the 23 at 00:00 UTC


212300Z 2200/2224 VRB03KT 9999 SCT030 TX27/2213Z TN14/2206Z
TEMPO 2200/2208 FEW010 SCT030
PROB30
TEMPO 2202/2207 0400 BCFG VV002
TEMPO 2210/2218 18009KT
PROB40
TEMPO 2214/2218 4000 SHRA BKN020 SCT025CB
No reported NOTAMs for that airfield.



MET'MAP, your aeronautical weather chart ! - Copyright ORBIFLY December 2007 - Disclaimer

ORBIFLY MET'MAP TEAM :

Programming & Development : Alexandra Zaïnal
Concept & Development : Baudouin d'Aumeries
Co-Development & Prog : Marc-Olivier Méhu
Technical & hardware support : Manuel Goepfert

Contact : metmap@orbifly.com




SOURCES & CREDITS :

   NOAA